sensor_id;sensor_type;location;lat;lon;timestamp;pressure;altitude;pressure_sealevel;temperature;humidity
61742;BME280;47650;49.848;9.620;2023-03-04T00:01:00;100258.72;;;-1.04;62.00
61742;BME280;47650;49.848;9.620;2023-03-04T00:03:33;100307.13;;;-0.75;62.23
61742;BME280;47650;49.848;9.620;2023-03-04T00:06:04;100157.16;;;-1.74;62.34
61742;BME280;47650;49.848;9.620;2023-03-04T00:08:30;100327.81;;;-0.70;62.69
61742;BME280;47650;49.848;9.620;2023-03-04T00:10:55;100314.84;;;-0.72;62.79
61742;BME280;47650;49.848;9.620;2023-03-04T00:13:21;100306.00;;;-0.91;64.08
61742;BME280;47650;49.848;9.620;2023-03-04T00:15:49;100339.78;;;-0.66;63.63
61742;BME280;47650;49.848;9.620;2023-03-04T00:18:15;100236.94;;;-1.25;62.22
61742;BME280;47650;49.848;9.620;2023-03-04T00:20:55;100316.19;;;-0.85;61.88
61742;BME280;47650;49.848;9.620;2023-03-04T00:23:22;100327.28;;;-0.80;62.33
61742;BME280;47650;49.848;9.620;2023-03-04T00:25:51;100314.75;;;-0.94;62.45
61742;BME280;47650;49.848;9.620;2023-03-04T00:28:16;100271.56;;;-1.23;62.45
61742;BME280;47650;49.848;9.620;2023-03-04T00:30:47;100340.47;;;-0.85;62.64
61742;BME280;47650;49.848;9.620;2023-03-04T00:33:18;100313.91;;;-0.95;62.38
61742;BME280;47650;49.848;9.620;2023-03-04T00:35:45;100336.22;;;-0.87;62.28
61742;BME280;47650;49.848;9.620;2023-03-04T00:38:18;100326.97;;;-0.96;62.58
61742;BME280;47650;49.848;9.620;2023-03-04T00:40:44;100271.66;;;-1.26;61.85
61742;BME280;47650;49.848;9.620;2023-03-04T00:43:09;100313.72;;;-1.14;62.07
61742;BME280;47650;49.848;9.620;2023-03-04T00:45:46;100336.50;;;-0.95;62.80
61742;BME280;47650;49.848;9.620;2023-03-04T00:48:12;100332.19;;;-0.96;62.53
61742;BME280;47650;49.848;9.620;2023-03-04T00:50:37;100344.31;;;-0.95;62.68
61742;BME280;47650;49.848;9.620;2023-03-04T00:53:05;100318.94;;;-1.14;62.94
61742;BME280;47650;49.848;9.620;2023-03-04T00:55:32;100341.31;;;-1.09;63.39
61742;BME280;47650;49.848;9.620;2023-03-04T00:58:00;100286.25;;;-1.47;63.00
61742;BME280;47650;49.848;9.620;2023-03-04T01:00:35;100344.94;;;-1.14;62.93
61742;BME280;47650;49.848;9.620;2023-03-04T01:03:05;100339.94;;;-1.20;63.12
61742;BME280;47650;49.848;9.620;2023-03-04T01:05:30;100316.91;;;-1.30;63.44
61742;BME280;47650;49.848;9.620;2023-03-04T01:08:01;100321.25;;;-1.31;63.31
61742;BME280;47650;49.848;9.620;2023-03-04T01:10:26;100335.59;;;-1.19;63.20
61742;BME280;47650;49.848;9.620;2023-03-04T01:12:52;100282.13;;;-1.53;63.58
61742;BME280;47650;49.848;9.620;2023-03-04T01:15:18;100290.66;;;-1.49;63.13
61742;BME280;47650;49.848;9.620;2023-03-04T01:17:44;100334.91;;;-1.24;63.09
61742;BME280;47650;49.848;9.620;2023-03-04T01:20:11;100328.88;;;-1.26;63.37
61742;BME280;47650;49.848;9.620;2023-03-04T01:22:40;100328.06;;;-1.27;63.44
61742;BME280;47650;49.848;9.620;2023-03-04T01:25:09;100321.38;;;-1.34;63.27
61742;BME280;47650;49.848;9.620;2023-03-04T01:27:37;100312.41;;;-1.50;63.30
61742;BME280;47650;49.848;9.620;2023-03-04T01:30:04;100298.84;;;-1.60;62.94
61742;BME280;47650;49.848;9.620;2023-03-04T01:32:31;100314.13;;;-1.51;63.20
61742;BME280;47650;49.848;9.620;2023-03-04T01:34:57;100319.31;;;-1.51;63.00
61742;BME280;47650;49.848;9.620;2023-03-04T01:37:30;100314.22;;;-1.54;63.17
61742;BME280;47650;49.848;9.620;2023-03-04T01:39:55;100328.63;;;-1.44;63.33
61742;BME280;47650;49.848;9.620;2023-03-04T01:42:33;100321.03;;;-1.50;63.02
61742;BME280;47650;49.848;9.620;2023-03-04T01:45:00;100318.38;;;-1.48;63.51
61742;BME280;47650;49.848;9.620;2023-03-04T01:47:33;100328.84;;;-1.50;63.37
61742;BME280;47650;49.848;9.620;2023-03-04T01:50:02;100327.13;;;-1.51;63.60
61742;BME280;47650;49.848;9.620;2023-03-04T01:52:34;100305.94;;;-1.65;63.48
61742;BME280;47650;49.848;9.620;2023-03-04T01:55:01;100321.13;;;-1.53;63.28
61742;BME280;47650;49.848;9.620;2023-03-04T01:57:34;100318.47;;;-1.52;64.08
61742;BME280;47650;49.848;9.620;2023-03-04T02:00:17;100309.19;;;-1.34;64.22
61742;BME280;47650;49.848;9.620;2023-03-04T02:02:46;100302.53;;;-1.16;64.44
61742;BME280;47650;49.848;9.620;2023-03-04T02:05:16;100304.44;;;-0.97;64.69
61742;BME280;47650;49.848;9.620;2023-03-04T02:07:43;100246.00;;;-1.12;64.54
61742;BME280;47650;49.848;9.620;2023-03-04T02:10:09;100282.69;;;-0.71;64.30
61742;BME280;47650;49.848;9.620;2023-03-04T02:12:44;100246.63;;;-0.82;63.99
61742;BME280;47650;49.848;9.620;2023-03-04T02:15:10;100277.56;;;-0.50;63.96
61742;BME280;47650;49.848;9.620;2023-03-04T02:17:40;100249.84;;;-0.51;63.69
61742;BME280;47650;49.848;9.620;2023-03-04T02:20:53;100277.41;;;-0.24;64.89
61742;BME280;47650;49.848;9.620;2023-03-04T02:26:49;100271.66;;;0.33;64.32
61742;BME280;47650;49.848;9.620;2023-03-04T02:29:10;100221.38;;;0.29;64.28
61742;BME280;47650;49.848;9.620;2023-03-04T02:31:39;100267.78;;;0.83;63.50
61742;BME280;47650;49.848;9.620;2023-03-04T02:34:18;100253.28;;;0.96;62.71
61742;BME280;47650;49.848;9.620;2023-03-04T02:36:46;100264.19;;;1.25;62.01
61742;BME280;47650;49.848;9.620;2023-03-04T02:41:44;100239.19;;;1.38;61.04
61742;BME280;47650;49.848;9.620;2023-03-04T02:44:24;100263.81;;;1.71;60.79
61742;BME280;47650;49.848;9.620;2023-03-04T02:46:53;100230.53;;;1.74;60.75
61742;BME280;47650;49.848;9.620;2023-03-04T02:49:19;100192.75;;;1.62;60.57
61742;BME280;47650;49.848;9.620;2023-03-04T02:51:45;100215.25;;;1.84;60.35
61742;BME280;47650;49.848;9.620;2023-03-04T02:54:22;100241.28;;;2.04;60.51
61742;BME280;47650;49.848;9.620;2023-03-04T02:56:56;100242.88;;;2.24;60.16
61742;BME280;47650;49.848;9.620;2023-03-04T02:59:31;100200.19;;;2.06;59.76
61742;BME280;47650;49.848;9.620;2023-03-04T03:01:59;100169.97;;;2.01;59.18
61742;BME280;47650;49.848;9.620;2023-03-04T03:04:28;100214.16;;;2.40;59.44
61742;BME280;47650;49.848;9.620;2023-03-04T03:06:54;100236.03;;;2.57;59.46
61742;BME280;47650;49.848;9.620;2023-03-04T03:09:20;100198.47;;;2.40;59.53
61742;BME280;47650;49.848;9.620;2023-03-04T03:11:46;100235.38;;;2.69;59.48
61742;BME280;47650;49.848;9.620;2023-03-04T03:14:16;100204.63;;;2.57;59.16
61742;BME280;47650;49.848;9.620;2023-03-04T03:16:43;100186.66;;;2.49;59.07
61742;BME280;47650;49.848;9.620;2023-03-04T03:19:10;100227.84;;;2.80;58.75
61742;BME280;47650;49.848;9.620;2023-03-04T03:21:35;100232.41;;;2.93;58.83
61742;BME280;47650;49.848;9.620;2023-03-04T03:24:01;100231.97;;;2.85;58.37
61742;BME280;47650;49.848;9.620;2023-03-04T03:26:26;100211.47;;;2.93;59.04
61742;BME280;47650;49.848;9.620;2023-03-04T03:28:53;100209.00;;;2.90;58.72
61742;BME280;47650;49.848;9.620;2023-03-04T03:31:21;100197.25;;;2.97;58.95
61742;BME280;47650;49.848;9.620;2023-03-04T03:33:52;100215.53;;;3.14;59.27
61742;BME280;47650;49.848;9.620;2023-03-04T03:36:18;100167.09;;;2.90;59.11
61742;BME280;47650;49.848;9.620;2023-03-04T03:38:46;100181.88;;;2.57;58.84
61742;BME280;47650;49.848;9.620;2023-03-04T03:41:11;100218.06;;;3.00;60.11
61742;BME280;47650;49.848;9.620;2023-03-04T03:43:38;100147.81;;;2.75;59.82
61742;BME280;47650;49.848;9.620;2023-03-04T03:46:04;100223.53;;;3.29;60.02
61742;BME280;47650;49.848;9.620;2023-03-04T03:48:30;100217.25;;;3.31;59.84
61742;BME280;47650;49.848;9.620;2023-03-04T03:50:56;100229.59;;;3.45;59.37
61742;BME280;47650;49.848;9.620;2023-03-04T03:53:22;100235.69;;;2.80;59.86
61742;BME280;47650;49.848;9.620;2023-03-04T03:55:47;100229.59;;;3.29;60.10
61742;BME280;47650;49.848;9.620;2023-03-04T03:58:15;100237.53;;;3.28;59.77
61742;BME280;47650;49.848;9.620;2023-03-04T04:00:45;100222.13;;;3.22;60.04
61742;BME280;47650;49.848;9.620;2023-03-04T04:03:13;100180.88;;;2.93;58.91
61742;BME280;47650;49.848;9.620;2023-03-04T04:05:39;100233.66;;;3.35;59.29
61742;BME280;47650;49.848;9.620;2023-03-04T04:08:11;100232.81;;;3.50;59.59
61742;BME280;47650;49.848;9.620;2023-03-04T04:10:37;100236.84;;;3.56;59.60
61742;BME280;47650;49.848;9.620;2023-03-04T04:13:18;100231.13;;;3.65;58.79
61742;BME280;47650;49.848;9.620;2023-03-04T04:15:46;100226.03;;;3.62;58.87
61742;BME280;47650;49.848;9.620;2023-03-04T04:18:11;100225.59;;;3.70;58.45
61742;BME280;47650;49.848;9.620;2023-03-04T04:20:46;100220.94;;;3.75;58.49
61742;BME280;47650;49.848;9.620;2023-03-04T04:23:18;100221.09;;;3.72;57.82
61742;BME280;47650;49.848;9.620;2023-03-04T04:25:44;100198.56;;;3.53;58.55
61742;BME280;47650;49.848;9.620;2023-03-04T04:28:11;100203.88;;;3.68;58.40
61742;BME280;47650;49.848;9.620;2023-03-04T04:30:36;100223.16;;;3.83;58.49
61742;BME280;47650;49.848;9.620;2023-03-04T04:33:02;100214.31;;;3.84;58.51
61742;BME280;47650;49.848;9.620;2023-03-04T04:35:30;100221.94;;;3.88;58.47
61742;BME280;47650;49.848;9.620;2023-03-04T04:37:56;100227.53;;;3.82;57.94
61742;BME280;47650;49.848;9.620;2023-03-04T04:40:21;100182.22;;;3.64;58.21
61742;BME280;47650;49.848;9.620;2023-03-04T04:42:47;100219.91;;;3.93;58.62
61742;BME280;47650;49.848;9.620;2023-03-04T04:45:12;100179.50;;;3.66;58.30
61742;BME280;47650;49.848;9.620;2023-03-04T04:47:37;100195.72;;;3.88;59.02
61742;BME280;47650;49.848;9.620;2023-03-04T04:50:03;100209.63;;;4.05;58.19
61742;BME280;47650;49.848;9.620;2023-03-04T04:52:28;100209.91;;;4.00;58.23
61742;BME280;47650;49.848;9.620;2023-03-04T04:55:01;100209.91;;;4.00;58.34
61742;BME280;47650;49.848;9.620;2023-03-04T04:57:27;100188.09;;;3.84;58.34
61742;BME280;47650;49.848;9.620;2023-03-04T04:59:55;100174.59;;;3.75;58.37
61742;BME280;47650;49.848;9.620;2023-03-04T05:02:21;100213.94;;;4.06;58.92
61742;BME280;47650;49.848;9.620;2023-03-04T05:04:54;100205.88;;;3.94;58.01
61742;BME280;47650;49.848;9.620;2023-03-04T05:07:20;100191.38;;;4.03;58.30
61742;BME280;47650;49.848;9.620;2023-03-04T05:09:47;100191.44;;;4.02;57.98
61742;BME280;47650;49.848;9.620;2023-03-04T05:12:13;100166.59;;;3.93;58.17
61742;BME280;47650;49.848;9.620;2023-03-04T05:14:38;100214.75;;;4.22;58.46
61742;BME280;47650;49.848;9.620;2023-03-04T05:17:04;100217.75;;;4.30;58.09
61742;BME280;47650;49.848;9.620;2023-03-04T05:19:32;100208.72;;;4.20;57.13
61742;BME280;47650;49.848;9.620;2023-03-04T05:22:06;100213.81;;;4.23;56.94
61742;BME280;47650;49.848;9.620;2023-03-04T05:24:32;100205.75;;;4.26;57.74
61742;BME280;47650;49.848;9.620;2023-03-04T05:26:58;100208.00;;;4.32;57.51
61742;BME280;47650;49.848;9.620;2023-03-04T05:29:24;100182.56;;;4.19;57.25
61742;BME280;47650;49.848;9.620;2023-03-04T05:31:49;100205.78;;;4.41;57.35
61742;BME280;47650;49.848;9.620;2023-03-04T05:34:15;100193.50;;;4.41;57.26
61742;BME280;47650;49.848;9.620;2023-03-04T05:37:05;100207.19;;;4.46;56.53
61742;BME280;47650;49.848;9.620;2023-03-04T05:39:31;100196.69;;;4.46;57.17
61742;BME280;47650;49.848;9.620;2023-03-04T05:41:57;100202.22;;;4.56;56.48
61742;BME280;47650;49.848;9.620;2023-03-04T05:44:22;100204.47;;;4.48;56.53
61742;BME280;47650;49.848;9.620;2023-03-04T05:46:49;100216.84;;;4.46;56.32
61742;BME280;47650;49.848;9.620;2023-03-04T05:49:14;100197.13;;;4.24;57.24
61742;BME280;47650;49.848;9.620;2023-03-04T05:51:42;100223.31;;;4.10;58.02
61742;BME280;47650;49.848;9.620;2023-03-04T05:54:08;100212.56;;;3.84;58.10
61742;BME280;47650;49.848;9.620;2023-03-04T05:56:33;100211.16;;;4.09;58.21
61742;BME280;47650;49.848;9.620;2023-03-04T05:59:11;100217.19;;;4.25;58.37
61742;BME280;47650;49.848;9.620;2023-03-04T06:01:42;100185.47;;;4.14;57.76
61742;BME280;47650;49.848;9.620;2023-03-04T06:04:09;100226.25;;;4.50;57.54
61742;BME280;47650;49.848;9.620;2023-03-04T06:06:34;100219.88;;;4.54;57.44
61742;BME280;47650;49.848;9.620;2023-03-04T06:09:02;100223.59;;;4.36;56.45
61742;BME280;47650;49.848;9.620;2023-03-04T06:11:28;100217.84;;;4.29;57.12
61742;BME280;47650;49.848;9.620;2023-03-04T06:13:53;100242.91;;;4.35;57.26
61742;BME280;47650;49.848;9.620;2023-03-04T06:16:20;100201.06;;;4.17;57.63
61742;BME280;47650;49.848;9.620;2023-03-04T06:18:45;100246.25;;;4.22;57.87
61742;BME280;47650;49.848;9.620;2023-03-04T06:21:10;100202.13;;;3.99;57.89
61742;BME280;47650;49.848;9.620;2023-03-04T06:23:38;100247.78;;;4.41;58.00
61742;BME280;47650;49.848;9.620;2023-03-04T06:26:04;100220.94;;;4.36;57.25
61742;BME280;47650;49.848;9.620;2023-03-04T06:28:39;100248.94;;;4.65;57.38
61742;BME280;47650;49.848;9.620;2023-03-04T06:31:06;100249.34;;;4.74;56.64
61742;BME280;47650;49.848;9.620;2023-03-04T06:33:33;100239.56;;;4.76;56.09
61742;BME280;47650;49.848;9.620;2023-03-04T06:36:01;100253.66;;;4.89;55.43
61742;BME280;47650;49.848;9.620;2023-03-04T06:38:33;100254.31;;;4.93;55.55
61742;BME280;47650;49.848;9.620;2023-03-04T06:41:09;100199.25;;;4.62;55.93
61742;BME280;47650;49.848;9.620;2023-03-04T06:43:45;100254.25;;;4.80;55.73
61742;BME280;47650;49.848;9.620;2023-03-04T06:46:10;100249.66;;;4.39;55.76
61742;BME280;47650;49.848;9.620;2023-03-04T06:48:35;100263.91;;;4.35;56.42
61742;BME280;47650;49.848;9.620;2023-03-04T06:51:07;100268.94;;;4.23;57.07
61742;BME280;47650;49.848;9.620;2023-03-04T06:53:33;100276.16;;;4.50;56.72
61742;BME280;47650;49.848;9.620;2023-03-04T06:56:03;100265.81;;;4.47;56.42
61742;BME280;47650;49.848;9.620;2023-03-04T06:58:32;100230.69;;;4.19;56.45
61742;BME280;47650;49.848;9.620;2023-03-04T07:01:16;100278.19;;;4.45;56.06
61742;BME280;47650;49.848;9.620;2023-03-04T07:03:46;100242.72;;;4.07;55.80
61742;BME280;47650;49.848;9.620;2023-03-04T07:06:13;100272.94;;;4.45;55.65
61742;BME280;47650;49.848;9.620;2023-03-04T07:08:45;100281.44;;;3.56;57.29
61742;BME280;47650;49.848;9.620;2023-03-04T07:11:18;100285.22;;;3.18;59.00
61742;BME280;47650;49.848;9.620;2023-03-04T07:13:44;100284.91;;;3.56;58.35
61742;BME280;47650;49.848;9.620;2023-03-04T07:16:14;100285.03;;;4.17;56.82
61742;BME280;47650;49.848;9.620;2023-03-04T07:18:51;100245.31;;;3.77;57.26
61742;BME280;47650;49.848;9.620;2023-03-04T07:21:24;100275.66;;;3.97;56.74
61742;BME280;47650;49.848;9.620;2023-03-04T07:23:51;100286.66;;;3.72;57.43
61742;BME280;47650;49.848;9.620;2023-03-04T07:26:19;100257.22;;;4.29;56.00
61742;BME280;47650;49.848;9.620;2023-03-04T07:28:44;100290.31;;;4.62;54.28
61742;BME280;47650;49.848;9.620;2023-03-04T07:31:21;100257.25;;;4.88;54.03
61742;BME280;47650;49.848;9.620;2023-03-04T07:34:06;100286.78;;;4.77;54.73
61742;BME280;47650;49.848;9.620;2023-03-04T07:36:34;100288.38;;;4.80;55.30
61742;BME280;47650;49.848;9.620;2023-03-04T07:39:00;100211.25;;;4.07;54.46
61742;BME280;47650;49.848;9.620;2023-03-04T07:41:32;100213.38;;;4.45;53.38
61742;BME280;47650;49.848;9.620;2023-03-04T07:44:00;100246.69;;;4.45;55.03
61742;BME280;47650;49.848;9.620;2023-03-04T07:46:26;100274.94;;;4.56;54.85
61742;BME280;47650;49.848;9.620;2023-03-04T07:48:56;100256.47;;;4.27;55.25
61742;BME280;47650;49.848;9.620;2023-03-04T07:51:23;100298.91;;;4.80;55.04
61742;BME280;47650;49.848;9.620;2023-03-04T07:53:52;100238.34;;;3.92;55.29
61742;BME280;47650;49.848;9.620;2023-03-04T07:56:21;100292.25;;;4.44;55.47
61742;BME280;47650;49.848;9.620;2023-03-04T07:58:50;100268.28;;;4.64;54.05
61742;BME280;47650;49.848;9.620;2023-03-04T08:01:30;100295.31;;;4.66;54.66
61742;BME280;47650;49.848;9.620;2023-03-04T08:03:58;100296.88;;;5.28;54.32
61742;BME280;47650;49.848;9.620;2023-03-04T08:06:24;100277.84;;;5.66;52.61
61742;BME280;47650;49.848;9.620;2023-03-04T08:09:03;100248.03;;;5.38;52.15
61742;BME280;47650;49.848;9.620;2023-03-04T08:11:32;100295.38;;;5.38;53.01
61742;BME280;47650;49.848;9.620;2023-03-04T08:13:58;100280.16;;;6.12;52.13
61742;BME280;47650;49.848;9.620;2023-03-04T08:16:24;100280.25;;;5.83;51.04
61742;BME280;47650;49.848;9.620;2023-03-04T08:18:53;100264.56;;;5.26;52.77
61742;BME280;47650;49.848;9.620;2023-03-04T08:21:20;100297.50;;;6.02;51.75
61742;BME280;47650;49.848;9.620;2023-03-04T08:23:47;100301.53;;;5.52;52.30
61742;BME280;47650;49.848;9.620;2023-03-04T08:26:17;100291.88;;;4.95;53.54
61742;BME280;47650;49.848;9.620;2023-03-04T08:28:50;100305.97;;;5.37;53.31
61742;BME280;47650;49.848;9.620;2023-03-04T08:31:16;100302.50;;;5.78;52.42
61742;BME280;47650;49.848;9.620;2023-03-04T08:33:45;100290.66;;;5.15;53.97
61742;BME280;47650;49.848;9.620;2023-03-04T08:36:12;100301.09;;;5.16;53.74
61742;BME280;47650;49.848;9.620;2023-03-04T08:38:37;100309.72;;;6.03;52.06
61742;BME280;47650;49.848;9.620;2023-03-04T08:41:03;100295.13;;;5.70;51.41
61742;BME280;47650;49.848;9.620;2023-03-04T08:43:33;100304.28;;;5.92;51.24
61742;BME280;47650;49.848;9.620;2023-03-04T08:45:59;100308.44;;;5.81;52.47
61742;BME280;47650;49.848;9.620;2023-03-04T08:48:29;100315.06;;;5.60;51.85
61742;BME280;47650;49.848;9.620;2023-03-04T08:50:55;100314.69;;;5.37;52.51
61742;BME280;47650;49.848;9.620;2023-03-04T08:53:22;100310.28;;;5.09;53.74
61742;BME280;47650;49.848;9.620;2023-03-04T08:55:51;100295.84;;;5.16;52.63
61742;BME280;47650;49.848;9.620;2023-03-04T08:58:17;100307.66;;;5.09;53.34
61742;BME280;47650;49.848;9.620;2023-03-04T09:00:45;100312.22;;;4.91;53.25
61742;BME280;47650;49.848;9.620;2023-03-04T09:03:15;100312.59;;;4.85;53.58
61742;BME280;47650;49.848;9.620;2023-03-04T09:05:45;100272.78;;;4.32;55.09
61742;BME280;47650;49.848;9.620;2023-03-04T09:08:11;100306.44;;;5.00;53.07
61742;BME280;47650;49.848;9.620;2023-03-04T09:10:37;100280.88;;;5.31;52.45
61742;BME280;47650;49.848;9.620;2023-03-04T09:13:04;100287.66;;;5.35;52.02
61742;BME280;47650;49.848;9.620;2023-03-04T09:15:30;100296.47;;;4.91;53.35
61742;BME280;47650;49.848;9.620;2023-03-04T09:17:56;100299.81;;;6.34;51.24
61742;BME280;47650;49.848;9.620;2023-03-04T09:20:21;100297.72;;;6.39;50.08
61742;BME280;47650;49.848;9.620;2023-03-04T09:22:49;100290.75;;;5.83;50.29
61742;BME280;47650;49.848;9.620;2023-03-04T09:25:14;100271.53;;;5.13;52.27
61742;BME280;47650;49.848;9.620;2023-03-04T09:27:40;100270.72;;;5.39;51.55
61742;BME280;47650;49.848;9.620;2023-03-04T09:30:06;100297.22;;;5.92;51.22
61742;BME280;47650;49.848;9.620;2023-03-04T09:32:33;100286.56;;;6.48;49.61
61742;BME280;47650;49.848;9.620;2023-03-04T09:37:27;100302.66;;;5.47;51.69
61742;BME280;47650;49.848;9.620;2023-03-04T09:39:55;100280.69;;;5.49;51.45
61742;BME280;47650;49.848;9.620;2023-03-04T09:42:27;100288.06;;;5.71;50.49
61742;BME280;47650;49.848;9.620;2023-03-04T09:44:59;100291.47;;;6.00;50.23
61742;BME280;47650;49.848;9.620;2023-03-04T09:47:25;100292.19;;;5.75;50.93
61742;BME280;47650;49.848;9.620;2023-03-04T09:49:57;100291.22;;;5.49;51.72
61742;BME280;47650;49.848;9.620;2023-03-04T09:55:24;100296.09;;;7.02;48.84
61742;BME280;47650;49.848;9.620;2023-03-04T09:58:08;100248.44;;;6.54;48.68
61742;BME280;47650;49.848;9.620;2023-03-04T10:00:42;100280.38;;;7.76;47.21
61742;BME280;47650;49.848;9.620;2023-03-04T10:03:14;100280.22;;;7.53;46.97
61742;BME280;47650;49.848;9.620;2023-03-04T10:06:06;100288.56;;;6.05;50.40
61742;BME280;47650;49.848;9.620;2023-03-04T10:08:59;100286.31;;;6.26;49.08
61742;BME280;47650;49.848;9.620;2023-03-04T10:11:47;100274.56;;;6.44;49.77
61742;BME280;47650;49.848;9.620;2023-03-04T10:17:42;100240.75;;;7.15;47.59
61742;BME280;47650;49.848;9.620;2023-03-04T10:19:53;100274.75;;;6.41;49.94
61742;BME280;47650;49.848;9.620;2023-03-04T10:22:26;100260.28;;;6.61;48.65
61742;BME280;47650;49.848;9.620;2023-03-04T10:25:32;100245.31;;;6.87;49.00
61742;BME280;47650;49.848;9.620;2023-03-04T10:28:02;100230.00;;;6.67;48.30
61742;BME280;47650;49.848;9.620;2023-03-04T10:30:51;100274.75;;;6.01;50.79
61742;BME280;47650;49.848;9.620;2023-03-04T10:33:22;100267.84;;;6.66;48.98
61742;BME280;47650;49.848;9.620;2023-03-04T10:39:17;100221.81;;;5.37;51.12
61742;BME280;47650;49.848;9.620;2023-03-04T10:41:44;100247.38;;;6.03;51.38
61742;BME280;47650;49.848;9.620;2023-03-04T10:46:47;100257.00;;;6.17;50.31
61742;BME280;47650;49.848;9.620;2023-03-04T10:49:15;100277.00;;;6.60;50.14
61742;BME280;47650;49.848;9.620;2023-03-04T10:51:49;100269.84;;;6.49;50.48
61742;BME280;47650;49.848;9.620;2023-03-04T10:54:25;100261.50;;;6.55;49.65
61742;BME280;47650;49.848;9.620;2023-03-04T10:56:55;100245.72;;;6.02;50.81
61742;BME280;47650;49.848;9.620;2023-03-04T11:02:20;100253.34;;;6.33;51.03
61742;BME280;47650;49.848;9.620;2023-03-04T11:04:50;100268.63;;;6.28;50.73
61742;BME280;47650;49.848;9.620;2023-03-04T11:07:25;100240.56;;;6.92;50.10
61742;BME280;47650;49.848;9.620;2023-03-04T11:09:52;100255.72;;;6.76;49.64
61742;BME280;47650;49.848;9.620;2023-03-04T11:12:33;100255.41;;;6.81;49.49
61742;BME280;47650;49.848;9.620;2023-03-04T11:14:58;100247.63;;;6.79;50.13
61742;BME280;47650;49.848;9.620;2023-03-04T11:17:39;100220.22;;;6.56;50.28
61742;BME280;47650;49.848;9.620;2023-03-04T11:22:39;100243.34;;;7.41;48.37
61742;BME280;47650;49.848;9.620;2023-03-04T11:25:28;100247.50;;;6.68;49.71
61742;BME280;47650;49.848;9.620;2023-03-04T11:27:58;100232.63;;;6.80;49.96
61742;BME280;47650;49.848;9.620;2023-03-04T11:30:33;100189.50;;;6.93;48.42
61742;BME280;47650;49.848;9.620;2023-03-04T11:33:13;100199.97;;;6.82;48.74
61742;BME280;47650;49.848;9.620;2023-03-04T11:36:24;100233.38;;;6.69;49.55
61742;BME280;47650;49.848;9.620;2023-03-04T11:38:49;100230.50;;;7.10;49.00
61742;BME280;47650;49.848;9.620;2023-03-04T11:41:24;100227.34;;;6.54;50.93
61742;BME280;47650;49.848;9.620;2023-03-04T11:43:52;100222.41;;;6.49;50.02
61742;BME280;47650;49.848;9.620;2023-03-04T11:52:08;100226.03;;;6.21;51.18
61742;BME280;47650;49.848;9.620;2023-03-04T12:00:55;100204.69;;;7.03;49.29
61742;BME280;47650;49.848;9.620;2023-03-04T12:06:34;100209.00;;;7.04;49.06
61742;BME280;47650;49.848;9.620;2023-03-04T12:09:21;100207.94;;;6.93;49.61
61742;BME280;47650;49.848;9.620;2023-03-04T12:17:18;100198.81;;;6.73;50.47
61742;BME280;47650;49.848;9.620;2023-03-04T12:20:08;100191.72;;;7.74;48.64
61742;BME280;47650;49.848;9.620;2023-03-04T12:22:45;100185.44;;;7.75;48.25
61742;BME280;47650;49.848;9.620;2023-03-04T12:25:40;100183.78;;;7.49;48.56
61742;BME280;47650;49.848;9.620;2023-03-04T12:31:32;100185.75;;;7.94;47.51
61742;BME280;47650;49.848;9.620;2023-03-04T12:37:10;100189.75;;;7.27;49.61
61742;BME280;47650;49.848;9.620;2023-03-04T12:48:40;100161.19;;;6.71;50.75
61742;BME280;47650;49.848;9.620;2023-03-04T12:51:17;100179.31;;;6.50;51.03
61742;BME280;47650;49.848;9.620;2023-03-04T12:54:13;100159.81;;;6.40;51.09
61742;BME280;47650;49.848;9.620;2023-03-04T12:56:55;100168.44;;;6.68;51.63
61742;BME280;47650;49.848;9.620;2023-03-04T12:59:22;100168.34;;;6.31;51.14
61742;BME280;47650;49.848;9.620;2023-03-04T13:04:52;100162.22;;;6.17;51.96
61742;BME280;47650;49.848;9.620;2023-03-04T13:10:08;100147.56;;;7.27;49.15
61742;BME280;47650;49.848;9.620;2023-03-04T13:12:52;100156.72;;;6.97;50.36
61742;BME280;47650;49.848;9.620;2023-03-04T13:21:23;100134.47;;;7.50;48.36
61742;BME280;47650;49.848;9.620;2023-03-04T13:23:52;100142.31;;;7.14;50.23
61742;BME280;47650;49.848;9.620;2023-03-04T13:26:34;100126.34;;;7.53;49.38
61742;BME280;47650;49.848;9.620;2023-03-04T13:32:10;100091.03;;;6.06;51.67
61742;BME280;47650;49.848;9.620;2023-03-04T13:34:52;100127.09;;;7.66;48.29
61742;BME280;47650;49.848;9.620;2023-03-04T13:37:35;100110.91;;;7.60;49.22
61742;BME280;47650;49.848;9.620;2023-03-04T13:42:44;100105.56;;;7.24;49.70
61742;BME280;47650;49.848;9.620;2023-03-04T13:45:30;100117.13;;;6.73;51.36
61742;BME280;47650;49.848;9.620;2023-03-04T13:47:56;100093.28;;;7.12;50.00
61742;BME280;47650;49.848;9.620;2023-03-04T13:50:30;100107.34;;;7.00;50.51
61742;BME280;47650;49.848;9.620;2023-03-04T13:58:27;100025.31;;;6.17;51.56
61742;BME280;47650;49.848;9.620;2023-03-04T14:00:54;100075.69;;;6.63;51.19
61742;BME280;47650;49.848;9.620;2023-03-04T14:03:25;100097.59;;;6.89;51.05
61742;BME280;47650;49.848;9.620;2023-03-04T14:08:40;99971.31;;;6.73;50.04
61742;BME280;47650;49.848;9.620;2023-03-04T14:13:55;100060.59;;;6.40;52.07
61742;BME280;47650;49.848;9.620;2023-03-04T14:16:25;100029.53;;;6.07;52.43
61742;BME280;47650;49.848;9.620;2023-03-04T14:19:03;100081.72;;;6.65;52.47
61742;BME280;47650;49.848;9.620;2023-03-04T14:21:34;100070.94;;;6.68;52.36
61742;BME280;47650;49.848;9.620;2023-03-04T14:24:15;100064.00;;;7.28;50.41
61742;BME280;47650;49.848;9.620;2023-03-04T14:26:42;100063.34;;;7.37;49.94
61742;BME280;47650;49.848;9.620;2023-03-04T14:29:27;100074.31;;;7.55;49.96
61742;BME280;47650;49.848;9.620;2023-03-04T14:31:55;100083.25;;;6.30;53.03
61742;BME280;47650;49.848;9.620;2023-03-04T14:34:41;100086.06;;;6.53;52.25
61742;BME280;47650;49.848;9.620;2023-03-04T14:37:24;100083.06;;;7.07;51.29
61742;BME280;47650;49.848;9.620;2023-03-04T14:39:56;100076.22;;;6.68;52.04
61742;BME280;47650;49.848;9.620;2023-03-04T14:42:24;100084.44;;;6.76;52.19
61742;BME280;47650;49.848;9.620;2023-03-04T14:44:50;100077.78;;;6.33;53.42